sensor_id;sensor_type;location;lat;lon;timestamp;temperature;humidity
38854;DHT22;24606;51.992;4.198;2023-04-10T00:03:05;21.20;65.50
38854;DHT22;24606;51.992;4.198;2023-04-10T00:08:08;21.10;65.80
38854;DHT22;24606;51.992;4.198;2023-04-10T00:13:10;21.10;65.80
38854;DHT22;24606;51.992;4.198;2023-04-10T00:18:12;21.10;65.70
38854;DHT22;24606;51.992;4.198;2023-04-10T00:23:15;21.10;65.80
38854;DHT22;24606;51.992;4.198;2023-04-10T00:28:17;21.10;65.30
38854;DHT22;24606;51.992;4.198;2023-04-10T00:33:19;21.00;65.80
38854;DHT22;24606;51.992;4.198;2023-04-10T00:38:22;21.00;65.50
38854;DHT22;24606;51.992;4.198;2023-04-10T00:43:24;21.00;65.40
38854;DHT22;24606;51.992;4.198;2023-04-10T00:48:27;20.90;65.50
38854;DHT22;24606;51.992;4.198;2023-04-10T00:53:30;20.90;65.50
38854;DHT22;24606;51.992;4.198;2023-04-10T00:58:32;20.90;65.50
38854;DHT22;24606;51.992;4.198;2023-04-10T01:03:34;20.80;65.20
38854;DHT22;24606;51.992;4.198;2023-04-10T01:08:46;20.90;65.50
38854;DHT22;24606;51.992;4.198;2023-04-10T01:13:56;20.80;65.70
38854;DHT22;24606;51.992;4.198;2023-04-10T01:19:06;20.80;65.40
38854;DHT22;24606;51.992;4.198;2023-04-10T01:24:35;20.80;65.70
38854;DHT22;24606;51.992;4.198;2023-04-10T01:29:47;20.70;65.50
38854;DHT22;24606;51.992;4.198;2023-04-10T01:34:54;20.80;65.30
38854;DHT22;24606;51.992;4.198;2023-04-10T01:40:00;20.70;65.30
38854;DHT22;24606;51.992;4.198;2023-04-10T01:45:06;20.70;65.20
38854;DHT22;24606;51.992;4.198;2023-04-10T01:50:09;20.70;65.70
38854;DHT22;24606;51.992;4.198;2023-04-10T01:55:12;20.60;65.60
38854;DHT22;24606;51.992;4.198;2023-04-10T02:00:16;20.60;65.50
38854;DHT22;24606;51.992;4.198;2023-04-10T02:05:18;20.60;65.80
38854;DHT22;24606;51.992;4.198;2023-04-10T02:10:26;20.60;65.50
38854;DHT22;24606;51.992;4.198;2023-04-10T02:15:31;20.60;65.50
38854;DHT22;24606;51.992;4.198;2023-04-10T02:20:35;20.60;65.60
38854;DHT22;24606;51.992;4.198;2023-04-10T02:25:37;20.50;65.30
38854;DHT22;24606;51.992;4.198;2023-04-10T02:30:40;20.50;65.40
38854;DHT22;24606;51.992;4.198;2023-04-10T02:35:42;20.50;65.50
38854;DHT22;24606;51.992;4.198;2023-04-10T02:40:44;20.50;65.30
38854;DHT22;24606;51.992;4.198;2023-04-10T02:45:47;20.50;65.60
38854;DHT22;24606;51.992;4.198;2023-04-10T02:50:54;20.50;65.40
38854;DHT22;24606;51.992;4.198;2023-04-10T02:55:56;20.40;65.40
38854;DHT22;24606;51.992;4.198;2023-04-10T03:00:59;20.40;65.30
38854;DHT22;24606;51.992;4.198;2023-04-10T03:06:01;20.40;65.40
38854;DHT22;24606;51.992;4.198;2023-04-10T03:11:03;20.30;65.40
38854;DHT22;24606;51.992;4.198;2023-04-10T03:16:06;20.40;65.30
38854;DHT22;24606;51.992;4.198;2023-04-10T03:21:08;20.30;65.20
38854;DHT22;24606;51.992;4.198;2023-04-10T03:26:10;20.20;65.40
38854;DHT22;24606;51.992;4.198;2023-04-10T03:31:13;20.30;65.40
38854;DHT22;24606;51.992;4.198;2023-04-10T03:36:15;20.20;65.40
38854;DHT22;24606;51.992;4.198;2023-04-10T03:41:17;20.20;65.60
38854;DHT22;24606;51.992;4.198;2023-04-10T03:46:20;20.10;65.80
38854;DHT22;24606;51.992;4.198;2023-04-10T03:51:22;20.10;65.80
38854;DHT22;24606;51.992;4.198;2023-04-10T03:56:25;20.00;66.00
38854;DHT22;24606;51.992;4.198;2023-04-10T04:01:28;20.10;66.00
38854;DHT22;24606;51.992;4.198;2023-04-10T04:06:30;20.00;66.10
38854;DHT22;24606;51.992;4.198;2023-04-10T04:11:32;20.10;65.50
38854;DHT22;24606;51.992;4.198;2023-04-10T04:16:35;20.00;65.60
38854;DHT22;24606;51.992;4.198;2023-04-10T04:21:37;20.00;66.10
38854;DHT22;24606;51.992;4.198;2023-04-10T04:26:39;20.00;66.00
38854;DHT22;24606;51.992;4.198;2023-04-10T04:31:42;20.00;65.50
38854;DHT22;24606;51.992;4.198;2023-04-10T04:36:44;20.00;65.80
38854;DHT22;24606;51.992;4.198;2023-04-10T04:41:46;19.90;65.90
38854;DHT22;24606;51.992;4.198;2023-04-10T04:46:49;19.80;66.60
38854;DHT22;24606;51.992;4.198;2023-04-10T04:51:51;19.80;66.10
38854;DHT22;24606;51.992;4.198;2023-04-10T04:56:53;19.70;66.30
38854;DHT22;24606;51.992;4.198;2023-04-10T05:01:56;19.70;66.30
38854;DHT22;24606;51.992;4.198;2023-04-10T05:06:58;19.70;66.60
38854;DHT22;24606;51.992;4.198;2023-04-10T05:12:00;19.60;66.60
38854;DHT22;24606;51.992;4.198;2023-04-10T05:17:04;19.60;66.70
38854;DHT22;24606;51.992;4.198;2023-04-10T05:22:06;19.70;66.80
38854;DHT22;24606;51.992;4.198;2023-04-10T05:27:08;19.70;66.90
38854;DHT22;24606;51.992;4.198;2023-04-10T05:32:11;19.70;66.50
38854;DHT22;24606;51.992;4.198;2023-04-10T05:37:13;19.80;66.50
38854;DHT22;24606;51.992;4.198;2023-04-10T05:42:15;19.80;66.60
38854;DHT22;24606;51.992;4.198;2023-04-10T05:47:18;19.70;67.00
38854;DHT22;24606;51.992;4.198;2023-04-10T05:52:20;19.70;66.80
38854;DHT22;24606;51.992;4.198;2023-04-10T05:57:23;19.70;67.00
38854;DHT22;24606;51.992;4.198;2023-04-10T06:15:29;20.10;64.90
38854;DHT22;24606;51.992;4.198;2023-04-10T06:20:31;20.00;66.30
38854;DHT22;24606;51.992;4.198;2023-04-10T06:25:33;20.10;65.20
38854;DHT22;24606;51.992;4.198;2023-04-10T06:30:36;20.10;66.30
38854;DHT22;24606;51.992;4.198;2023-04-10T06:35:38;20.10;66.10
38854;DHT22;24606;51.992;4.198;2023-04-10T06:40:41;20.10;66.70
38854;DHT22;24606;51.992;4.198;2023-04-10T06:45:44;20.10;66.50
38854;DHT22;24606;51.992;4.198;2023-04-10T06:50:46;19.90;66.70
38854;DHT22;24606;51.992;4.198;2023-04-10T06:55:47;20.00;67.20
38854;DHT22;24606;51.992;4.198;2023-04-10T07:00:51;20.10;66.60
38854;DHT22;24606;51.992;4.198;2023-04-10T07:05:53;20.10;66.60
38854;DHT22;24606;51.992;4.198;2023-04-10T07:10:56;20.00;66.50
38854;DHT22;24606;51.992;4.198;2023-04-10T07:15:59;19.80;68.10
38854;DHT22;24606;51.992;4.198;2023-04-10T07:21:01;19.70;68.90
38854;DHT22;24606;51.992;4.198;2023-04-10T07:26:03;19.90;66.40
38854;DHT22;24606;51.992;4.198;2023-04-10T07:31:07;20.20;64.10
38854;DHT22;24606;51.992;4.198;2023-04-10T07:36:10;20.10;63.90
38854;DHT22;24606;51.992;4.198;2023-04-10T07:41:11;20.10;64.60
38854;DHT22;24606;51.992;4.198;2023-04-10T07:46:15;20.30;64.50
38854;DHT22;24606;51.992;4.198;2023-04-10T07:51:17;20.10;65.20
38854;DHT22;24606;51.992;4.198;2023-04-10T07:56:20;20.10;65.50
38854;DHT22;24606;51.992;4.198;2023-04-10T08:01:23;20.00;65.70
38854;DHT22;24606;51.992;4.198;2023-04-10T08:06:25;20.00;66.50
38854;DHT22;24606;51.992;4.198;2023-04-10T08:11:29;20.10;65.70
38854;DHT22;24606;51.992;4.198;2023-04-10T08:16:33;20.20;64.80
38854;DHT22;24606;51.992;4.198;2023-04-10T08:21:35;20.20;64.40
38854;DHT22;24606;51.992;4.198;2023-04-10T08:26:37;20.10;64.40
38854;DHT22;24606;51.992;4.198;2023-04-10T08:31:40;20.20;64.40
38854;DHT22;24606;51.992;4.198;2023-04-10T08:36:42;20.20;64.50
38854;DHT22;24606;51.992;4.198;2023-04-10T08:41:44;20.20;64.60
38854;DHT22;24606;51.992;4.198;2023-04-10T08:46:47;20.20;64.00
38854;DHT22;24606;51.992;4.198;2023-04-10T08:51:54;20.30;63.60
38854;DHT22;24606;51.992;4.198;2023-04-10T08:56:56;20.30;64.20
38854;DHT22;24606;51.992;4.198;2023-04-10T09:02:02;20.30;64.60
38854;DHT22;24606;51.992;4.198;2023-04-10T09:07:04;20.40;64.30
38854;DHT22;24606;51.992;4.198;2023-04-10T09:12:06;20.40;63.90
38854;DHT22;24606;51.992;4.198;2023-04-10T09:17:14;20.20;64.50
38854;DHT22;24606;51.992;4.198;2023-04-10T09:22:17;20.10;65.40
38854;DHT22;24606;51.992;4.198;2023-04-10T09:27:30;20.10;65.50
38854;DHT22;24606;51.992;4.198;2023-04-10T09:32:38;20.00;66.00
38854;DHT22;24606;51.992;4.198;2023-04-10T09:37:42;20.00;66.20
38854;DHT22;24606;51.992;4.198;2023-04-10T09:42:45;20.10;65.90
38854;DHT22;24606;51.992;4.198;2023-04-10T09:48:02;20.10;65.50
38854;DHT22;24606;51.992;4.198;2023-04-10T09:53:04;20.00;62.80
38854;DHT22;24606;51.992;4.198;2023-04-10T09:58:06;20.30;63.50
38854;DHT22;24606;51.992;4.198;2023-04-10T10:03:11;20.80;63.10
38854;DHT22;24606;51.992;4.198;2023-04-10T10:08:14;20.80;62.90
38854;DHT22;24606;51.992;4.198;2023-04-10T10:13:22;20.80;62.10
38854;DHT22;24606;51.992;4.198;2023-04-10T10:18:36;20.90;61.10
38854;DHT22;24606;51.992;4.198;2023-04-10T10:23:41;20.90;61.40
38854;DHT22;24606;51.992;4.198;2023-04-10T10:28:45;20.70;61.20
38854;DHT22;24606;51.992;4.198;2023-04-10T10:33:50;20.50;63.20
38854;DHT22;24606;51.992;4.198;2023-04-10T10:38:59;20.50;64.10
38854;DHT22;24606;51.992;4.198;2023-04-10T10:44:10;20.70;66.70
38854;DHT22;24606;51.992;4.198;2023-04-10T10:49:13;20.70;67.70
38854;DHT22;24606;51.992;4.198;2023-04-10T10:54:27;20.70;63.70
38854;DHT22;24606;51.992;4.198;2023-04-10T10:59:54;20.70;65.20
38854;DHT22;24606;51.992;4.198;2023-04-10T11:04:58;20.70;63.00
38854;DHT22;24606;51.992;4.198;2023-04-10T11:10:00;20.60;67.00
38854;DHT22;24606;51.992;4.198;2023-04-10T11:15:02;20.40;66.70
38854;DHT22;24606;51.992;4.198;2023-04-10T11:20:07;20.40;72.90
38854;DHT22;24606;51.992;4.198;2023-04-10T11:25:08;20.50;66.50
38854;DHT22;24606;51.992;4.198;2023-04-10T11:30:33;20.60;64.70
38854;DHT22;24606;51.992;4.198;2023-04-10T11:35:37;20.60;67.80
38854;DHT22;24606;51.992;4.198;2023-04-10T11:41:01;20.60;68.20
38854;DHT22;24606;51.992;4.198;2023-04-10T11:46:21;20.80;68.20
38854;DHT22;24606;51.992;4.198;2023-04-10T11:51:33;20.60;68.90
38854;DHT22;24606;51.992;4.198;2023-04-10T11:56:56;20.60;69.60
38854;DHT22;24606;51.992;4.198;2023-04-10T12:02:05;20.60;65.30
38854;DHT22;24606;51.992;4.198;2023-04-10T12:07:10;20.60;65.40
38854;DHT22;24606;51.992;4.198;2023-04-10T12:12:11;20.60;68.30
38854;DHT22;24606;51.992;4.198;2023-04-10T12:17:16;20.50;70.20
38854;DHT22;24606;51.992;4.198;2023-04-10T12:22:20;20.70;68.80
38854;DHT22;24606;51.992;4.198;2023-04-10T12:27:23;20.40;67.00
38854;DHT22;24606;51.992;4.198;2023-04-10T12:32:26;20.40;67.30
38854;DHT22;24606;51.992;4.198;2023-04-10T12:37:47;20.40;68.00
38854;DHT22;24606;51.992;4.198;2023-04-10T12:42:49;20.50;72.80
38854;DHT22;24606;51.992;4.198;2023-04-10T12:47:51;20.40;72.80
38854;DHT22;24606;51.992;4.198;2023-04-10T12:53:03;20.30;68.50
38854;DHT22;24606;51.992;4.198;2023-04-10T12:58:16;20.30;70.90
38854;DHT22;24606;51.992;4.198;2023-04-10T13:03:19;20.20;71.00
38854;DHT22;24606;51.992;4.198;2023-04-10T13:08:22;20.30;68.20
38854;DHT22;24606;51.992;4.198;2023-04-10T13:13:25;20.00;70.40
38854;DHT22;24606;51.992;4.198;2023-04-10T13:18:26;20.20;71.20
38854;DHT22;24606;51.992;4.198;2023-04-10T13:23:30;20.10;71.00
38854;DHT22;24606;51.992;4.198;2023-04-10T13:28:32;20.10;71.00
38854;DHT22;24606;51.992;4.198;2023-04-10T13:33:34;19.80;71.10
38854;DHT22;24606;51.992;4.198;2023-04-10T13:38:37;20.00;71.70
38854;DHT22;24606;51.992;4.198;2023-04-10T13:43:39;20.20;70.70
38854;DHT22;24606;51.992;4.198;2023-04-10T13:48:41;20.00;71.30
38854;DHT22;24606;51.992;4.198;2023-04-10T13:53:44;19.90;70.20
38854;DHT22;24606;51.992;4.198;2023-04-10T13:58:46;19.80;72.50
38854;DHT22;24606;51.992;4.198;2023-04-10T14:03:47;19.60;72.80
38854;DHT22;24606;51.992;4.198;2023-04-10T14:08:51;20.20;69.50
38854;DHT22;24606;51.992;4.198;2023-04-10T14:13:53;20.10;69.80
38854;DHT22;24606;51.992;4.198;2023-04-10T14:18:55;20.10;70.40
38854;DHT22;24606;51.992;4.198;2023-04-10T14:23:58;19.70;73.10
38854;DHT22;24606;51.992;4.198;2023-04-10T14:29:00;19.40;74.80
38854;DHT22;24606;51.992;4.198;2023-04-10T14:34:02;19.60;74.20
38854;DHT22;24606;51.992;4.198;2023-04-10T14:39:05;19.20;76.70
38854;DHT22;24606;51.992;4.198;2023-04-10T14:44:07;19.00;80.70
38854;DHT22;24606;51.992;4.198;2023-04-10T14:49:09;18.20;89.40
38854;DHT22;24606;51.992;4.198;2023-04-10T14:54:15;16.30;95.50
38854;DHT22;24606;51.992;4.198;2023-04-10T14:59:21;16.90;95.20
38854;DHT22;24606;51.992;4.198;2023-04-10T15:04:23;17.00;96.00
38854;DHT22;24606;51.992;4.198;2023-04-10T15:09:26;18.10;92.20
38854;DHT22;24606;51.992;4.198;2023-04-10T15:14:28;18.00;92.40
38854;DHT22;24606;51.992;4.198;2023-04-10T15:19:30;18.10;91.50
38854;DHT22;24606;51.992;4.198;2023-04-10T15:24:33;17.60;93.50
38854;DHT22;24606;51.992;4.198;2023-04-10T15:29:37;17.60;95.30
38854;DHT22;24606;51.992;4.198;2023-04-10T15:34:39;16.30;99.90
38854;DHT22;24606;51.992;4.198;2023-04-10T15:39:42;16.40;99.30
38854;DHT22;24606;51.992;4.198;2023-04-10T15:44:44;17.50;95.50
38854;DHT22;24606;51.992;4.198;2023-04-10T15:49:46;18.50;91.20
38854;DHT22;24606;51.992;4.198;2023-04-10T15:54:50;18.80;88.30
38854;DHT22;24606;51.992;4.198;2023-04-10T15:59:52;18.30;90.70
38854;DHT22;24606;51.992;4.198;2023-04-10T16:04:56;16.90;98.20
38854;DHT22;24606;51.992;4.198;2023-04-10T16:09:59;16.30;99.90
38854;DHT22;24606;51.992;4.198;2023-04-10T16:15:01;15.90;99.90
38854;DHT22;24606;51.992;4.198;2023-04-10T16:20:04;15.80;99.90
38854;DHT22;24606;51.992;4.198;2023-04-10T16:25:08;14.60;99.90
38854;DHT22;24606;51.992;4.198;2023-04-10T16:30:11;14.70;99.90
38854;DHT22;24606;51.992;4.198;2023-04-10T16:35:13;14.90;99.90
38854;DHT22;24606;51.992;4.198;2023-04-10T16:40:18;15.80;99.90
38854;DHT22;24606;51.992;4.198;2023-04-10T16:45:20;16.40;99.90
38854;DHT22;24606;51.992;4.198;2023-04-10T16:50:22;15.50;99.90
38854;DHT22;24606;51.992;4.198;2023-04-10T16:55:25;15.30;99.90
38854;DHT22;24606;51.992;4.198;2023-04-10T17:00:27;15.30;99.90
38854;DHT22;24606;51.992;4.198;2023-04-10T17:05:33;15.50;99.90
38854;DHT22;24606;51.992;4.198;2023-04-10T17:10:36;15.40;99.90
38854;DHT22;24606;51.992;4.198;2023-04-10T17:15:38;14.60;99.90
38854;DHT22;24606;51.992;4.198;2023-04-10T17:20:40;15.30;99.90
38854;DHT22;24606;51.992;4.198;2023-04-10T17:25:44;15.20;99.90
38854;DHT22;24606;51.992;4.198;2023-04-10T17:30:45;14.50;99.90
38854;DHT22;24606;51.992;4.198;2023-04-10T17:35:49;14.90;99.90
38854;DHT22;24606;51.992;4.198;2023-04-10T17:40:52;14.30;99.90
38854;DHT22;24606;51.992;4.198;2023-04-10T17:45:54;15.80;99.90
38854;DHT22;24606;51.992;4.198;2023-04-10T17:50:56;15.30;99.90
38854;DHT22;24606;51.992;4.198;2023-04-10T17:55:59;13.80;99.90
38854;DHT22;24606;51.992;4.198;2023-04-10T18:01:01;15.20;99.90
38854;DHT22;24606;51.992;4.198;2023-04-10T18:06:03;14.80;99.90
38854;DHT22;24606;51.992;4.198;2023-04-10T18:11:06;14.60;99.90
38854;DHT22;24606;51.992;4.198;2023-04-10T18:16:09;13.90;99.90
38854;DHT22;24606;51.992;4.198;2023-04-10T18:21:11;13.80;99.90
38854;DHT22;24606;51.992;4.198;2023-04-10T18:26:15;15.70;99.90
38854;DHT22;24606;51.992;4.198;2023-04-10T18:31:20;15.00;99.90
38854;DHT22;24606;51.992;4.198;2023-04-10T18:36:22;14.10;99.90
38854;DHT22;24606;51.992;4.198;2023-04-10T18:41:25;13.70;99.90
38854;DHT22;24606;51.992;4.198;2023-04-10T18:46:27;14.10;99.90
38854;DHT22;24606;51.992;4.198;2023-04-10T18:51:30;13.80;99.90
38854;DHT22;24606;51.992;4.198;2023-04-10T18:56:34;14.30;99.90
38854;DHT22;24606;51.992;4.198;2023-04-10T19:01:37;14.40;99.90
38854;DHT22;24606;51.992;4.198;2023-04-10T19:06:40;14.70;99.90
38854;DHT22;24606;51.992;4.198;2023-04-10T19:11:45;14.20;99.90
38854;DHT22;24606;51.992;4.198;2023-04-10T19:16:47;13.90;99.90
38854;DHT22;24606;51.992;4.198;2023-04-10T19:21:48;15.10;99.90
38854;DHT22;24606;51.992;4.198;2023-04-10T19:26:52;14.10;99.90
38854;DHT22;24606;51.992;4.198;2023-04-10T19:31:54;13.70;99.90
38854;DHT22;24606;51.992;4.198;2023-04-10T19:36:55;14.70;99.90
38854;DHT22;24606;51.992;4.198;2023-04-10T19:41:59;15.60;99.30
38854;DHT22;24606;51.992;4.198;2023-04-10T19:47:02;14.40;99.90
38854;DHT22;24606;51.992;4.198;2023-04-10T19:52:04;13.90;99.90
38854;DHT22;24606;51.992;4.198;2023-04-10T19:57:07;13.50;99.90
38854;DHT22;24606;51.992;4.198;2023-04-10T20:02:10;14.40;99.90
38854;DHT22;24606;51.992;4.198;2023-04-10T20:07:14;14.90;99.90
38854;DHT22;24606;51.992;4.198;2023-04-10T20:12:17;15.30;99.90
38854;DHT22;24606;51.992;4.198;2023-04-10T20:17:19;13.40;99.90
38854;DHT22;24606;51.992;4.198;2023-04-10T20:22:21;14.30;99.90
38854;DHT22;24606;51.992;4.198;2023-04-10T20:27:25;14.10;99.90
38854;DHT22;24606;51.992;4.198;2023-04-10T20:32:27;13.70;99.90
38854;DHT22;24606;51.992;4.198;2023-04-10T20:37:29;12.70;99.90
38854;DHT22;24606;51.992;4.198;2023-04-10T20:42:32;13.10;99.90
38854;DHT22;24606;51.992;4.198;2023-04-10T20:47:34;12.90;99.90
38854;DHT22;24606;51.992;4.198;2023-04-10T20:52:36;12.60;99.90
38854;DHT22;24606;51.992;4.198;2023-04-10T20:57:39;13.20;99.90
38854;DHT22;24606;51.992;4.198;2023-04-10T21:02:41;12.90;99.90
38854;DHT22;24606;51.992;4.198;2023-04-10T21:07:42;12.70;99.90
38854;DHT22;24606;51.992;4.198;2023-04-10T21:12:46;12.20;99.90
38854;DHT22;24606;51.992;4.198;2023-04-10T21:17:48;12.70;99.90
38854;DHT22;24606;51.992;4.198;2023-04-10T21:22:50;11.00;99.90
38854;DHT22;24606;51.992;4.198;2023-04-10T21:27:54;10.90;99.90
38854;DHT22;24606;51.992;4.198;2023-04-10T21:32:56;11.10;99.90
38854;DHT22;24606;51.992;4.198;2023-04-10T21:37:58;11.30;99.90
38854;DHT22;24606;51.992;4.198;2023-04-10T21:43:01;12.70;99.90
38854;DHT22;24606;51.992;4.198;2023-04-10T21:48:03;11.30;99.90
38854;DHT22;24606;51.992;4.198;2023-04-10T21:53:05;12.40;99.90
38854;DHT22;24606;51.992;4.198;2023-04-10T21:58:08;12.50;99.90
38854;DHT22;24606;51.992;4.198;2023-04-10T22:03:10;13.70;99.90
38854;DHT22;24606;51.992;4.198;2023-04-10T22:08:12;14.80;99.90
38854;DHT22;24606;51.992;4.198;2023-04-10T22:13:16;13.70;99.90
38854;DHT22;24606;51.992;4.198;2023-04-10T22:18:18;11.50;99.90
38854;DHT22;24606;51.992;4.198;2023-04-10T22:23:20;11.50;99.90
38854;DHT22;24606;51.992;4.198;2023-04-10T22:28:23;12.80;99.90
38854;DHT22;24606;51.992;4.198;2023-04-10T22:33:25;12.60;99.90
38854;DHT22;24606;51.992;4.198;2023-04-10T22:38:27;11.40;99.90
38854;DHT22;24606;51.992;4.198;2023-04-10T22:43:32;12.10;99.90
38854;DHT22;24606;51.992;4.198;2023-04-10T22:48:34;11.80;99.90
38854;DHT22;24606;51.992;4.198;2023-04-10T22:53:36;11.50;99.90
38854;DHT22;24606;51.992;4.198;2023-04-10T22:58:39;11.10;99.90
38854;DHT22;24606;51.992;4.198;2023-04-10T23:03:41;11.60;99.90
38854;DHT22;24606;51.992;4.198;2023-04-10T23:08:44;11.30;99.90
38854;DHT22;24606;51.992;4.198;2023-04-10T23:13:47;11.60;99.90
38854;DHT22;24606;51.992;4.198;2023-04-10T23:18:49;11.10;99.90
38854;DHT22;24606;51.992;4.198;2023-04-10T23:23:51;10.50;99.90
38854;DHT22;24606;51.992;4.198;2023-04-10T23:28:54;11.50;99.90
38854;DHT22;24606;51.992;4.198;2023-04-10T23:33:56;11.10;99.90
38854;DHT22;24606;51.992;4.198;2023-04-10T23:38:58;12.20;99.90
38854;DHT22;24606;51.992;4.198;2023-04-10T23:44:01;10.80;99.90
38854;DHT22;24606;51.992;4.198;2023-04-10T23:49:03;11.30;99.90
38854;DHT22;24606;51.992;4.198;2023-04-10T23:54:05;11.30;99.90
38854;DHT22;24606;51.992;4.198;2023-04-10T23:59:08;11.70;99.90
